Time;durP1;ratioP1;P1;durP2;ratioP2;P2;SDS_P1;SDS_P2;PMS_P1;PMS_P2;Temp;Humidity;BMP_temperature;BMP_pressure;BME280_temperature;BME280_humidity;BME280_pressure;Samples;Min_cycle;Max_cycle;Signal;HPM_P1;HPM_P2
2023/10/19 00:00:58;;;;;;;15.98;11.88;;;8.60;99.90;;;;;;4958557;28;89682;-29
2023/10/19 00:03:24;;;;;;;16.98;12.43;;;8.60;99.90;;;;;;4941016;28;89528;-33
2023/10/19 00:05:50;;;;;;;16.65;11.57;;;8.50;99.90;;;;;;4958214;28;89489;-30
2023/10/19 00:08:23;;;;;;;18.73;13.40;;;8.50;99.90;;;;;;4958420;28;90178;-32
2023/10/19 00:11:08;;;;;;;19.30;12.55;;;8.60;99.90;;;;;;4958784;28;89620;-32
2023/10/19 00:13:38;;;;;;;13.57;10.07;;;8.50;99.90;;;;;;4958236;28;89542;-32
2023/10/19 00:16:12;;;;;;;13.65;9.80;;;8.50;99.90;;;;;;4960282;28;88735;-32
2023/10/19 00:18:42;;;;;;;20.70;12.18;;;8.60;99.90;;;;;;4963171;28;90428;-30
2023/10/19 00:23:42;;;;;;;22.25;12.60;;;8.60;99.90;;;;;;4961844;28;88301;-29
2023/10/19 00:26:17;;;;;;;20.90;13.02;;;8.60;99.90;;;;;;4962670;28;89699;-30
2023/10/19 00:28:45;;;;;;;19.63;13.52;;;8.50;99.90;;;;;;4961717;28;89934;-31
2023/10/19 00:31:11;;;;;;;21.25;13.75;;;8.40;99.90;;;;;;4960931;28;89047;-34
2023/10/19 00:33:40;;;;;;;19.30;12.05;;;8.40;99.90;;;;;;4961587;28;89710;-32
2023/10/19 00:36:12;;;;;;;17.40;12.50;;;8.40;99.90;;;;;;4961888;28;88074;-32
2023/10/19 00:38:40;;;;;;;17.83;12.02;;;8.50;99.90;;;;;;4962515;28;90202;-31
2023/10/19 00:43:42;;;;;;;18.80;13.25;;;8.40;99.90;;;;;;4960866;28;88238;-31
2023/10/19 00:49:12;;;;;;;20.85;13.13;;;8.50;99.90;;;;;;4953976;28;90455;-33
2023/10/19 00:54:31;;;;;;;22.00;14.18;;;8.40;99.90;;;;;;4961284;28;88517;-31
2023/10/19 00:57:03;;;;;;;24.77;15.52;;;8.50;99.90;;;;;;4961586;28;89914;-32
2023/10/19 00:59:35;;;;;;;15.93;12.05;;;8.50;99.90;;;;;;4962293;28;89090;-31
2023/10/19 01:02:16;;;;;;;22.58;13.38;;;8.50;99.90;;;;;;4961590;28;89879;-31
2023/10/19 01:04:50;;;;;;;19.88;12.70;;;8.40;99.90;;;;;;4944192;28;90534;-31
2023/10/19 01:07:27;;;;;;;19.85;13.55;;;8.40;99.90;;;;;;4961761;28;88824;-29
2023/10/19 01:09:59;;;;;;;20.90;11.98;;;8.40;99.90;;;;;;4961994;28;90161;-30
2023/10/19 01:12:25;;;;;;;21.00;16.02;;;8.50;99.90;;;;;;4961755;28;89775;-30
2023/10/19 01:15:13;;;;;;;22.58;14.73;;;8.50;99.90;;;;;;4962162;28;87883;-31
2023/10/19 01:17:40;;;;;;;22.17;15.18;;;8.40;99.90;;;;;;4961217;28;88502;-33
2023/10/19 01:20:18;;;;;;;19.70;13.35;;;8.40;99.90;;;;;;4960666;28;89798;-33
2023/10/19 01:25:42;;;;;;;17.65;11.50;;;8.40;99.90;;;;;;4960119;28;90374;-32
2023/10/19 01:28:09;;;;;;;21.90;14.25;;;8.40;99.90;;;;;;4941100;28;89131;-29
2023/10/19 01:30:36;;;;;;;21.03;13.07;;;8.40;99.90;;;;;;4959644;28;90492;-31
2023/10/19 01:33:04;;;;;;;22.65;16.52;;;8.30;99.90;;;;;;4959292;28;91112;-33
2023/10/19 01:36:10;;;;;;;25.67;14.95;;;8.40;99.90;;;;;;4960824;28;90536;-33
2023/10/19 01:38:16;;;;;;;22.45;14.70;;;8.40;99.90;;;;;;4959764;28;88300;-31
2023/10/19 01:40:46;;;;;;;13.55;11.40;;;8.40;99.90;;;;;;4959814;28;90135;-30
2023/10/19 01:43:21;;;;;;;18.23;12.65;;;8.40;99.90;;;;;;4959205;28;88462;-30
2023/10/19 01:45:48;;;;;;;19.58;14.90;;;8.40;99.90;;;;;;4959696;28;89805;-30
2023/10/19 01:48:15;;;;;;;25.50;13.80;;;8.40;99.90;;;;;;4959747;28;89861;-31
2023/10/19 01:50:41;;;;;;;45.53;16.17;;;8.40;99.90;;;;;;4959828;28;90123;-32
2023/10/19 01:53:15;;;;;;;23.13;15.65;;;8.40;99.90;;;;;;4959531;28;90233;-30
2023/10/19 01:55:43;;;;;;;27.52;14.50;;;8.40;99.90;;;;;;4959460;28;89678;-29
2023/10/19 01:58:09;;;;;;;22.38;14.95;;;8.40;99.90;;;;;;4958207;28;90534;-28
2023/10/19 02:00:37;;;;;;;22.00;14.98;;;8.30;99.90;;;;;;4942064;28;89850;-30
2023/10/19 02:03:07;;;;;;;19.30;12.13;;;8.30;99.90;;;;;;4959577;28;89775;-32
2023/10/19 02:05:39;;;;;;;19.63;15.02;;;8.30;99.90;;;;;;4960434;28;89564;-33
2023/10/19 02:08:07;;;;;;;24.10;14.98;;;8.30;99.90;;;;;;4960075;28;87556;-32
2023/10/19 02:10:34;;;;;;;20.42;14.77;;;8.40;99.90;;;;;;4960253;28;89829;-35
2023/10/19 02:13:00;;;;;;;28.27;15.17;;;8.40;99.90;;;;;;4959648;28;89827;-32
2023/10/19 02:15:26;;;;;;;25.20;15.45;;;8.30;99.90;;;;;;4959037;28;89330;-32
2023/10/19 02:17:54;;;;;;;22.42;15.05;;;8.30;99.90;;;;;;4960016;28;88544;-32
2023/10/19 02:20:24;;;;;;;21.90;15.60;;;8.30;99.90;;;;;;4959787;28;90057;-31
2023/10/19 02:22:52;;;;;;;22.67;15.70;;;8.30;99.90;;;;;;4959145;28;91455;-30
2023/10/19 02:25:18;;;;;;;21.70;14.80;;;8.30;99.90;;;;;;4958428;28;90237;-30
2023/10/19 02:27:44;;;;;;;22.75;14.93;;;8.30;99.90;;;;;;4959920;28;88641;-30
2023/10/19 02:30:11;;;;;;;20.23;12.98;;;8.30;99.90;;;;;;4956410;28;89982;-30
2023/10/19 02:32:37;;;;;;;22.98;14.43;;;8.30;99.90;;;;;;4959320;28;90205;-33
2023/10/19 02:35:03;;;;;;;21.77;12.88;;;8.30;99.90;;;;;;4959001;28;89678;-33
2023/10/19 02:37:28;;;;;;;18.92;12.13;;;8.30;99.90;;;;;;4958997;28;89275;-31
2023/10/19 02:39:54;;;;;;;19.92;12.15;;;8.40;99.90;;;;;;4958974;28;90342;-32
2023/10/19 02:42:22;;;;;;;16.50;11.82;;;8.40;99.90;;;;;;4959637;28;89321;-32
2023/10/19 02:44:50;;;;;;;19.83;12.23;;;8.50;99.90;;;;;;4957713;28;90030;-32
2023/10/19 02:47:17;;;;;;;17.73;12.82;;;8.50;99.90;;;;;;4958248;28;90401;-29
2023/10/19 02:49:44;;;;;;;18.98;12.30;;;8.50;99.90;;;;;;4957316;28;90362;-30
2023/10/19 02:52:13;;;;;;;16.08;10.75;;;8.50;99.90;;;;;;4959286;28;89708;-29
2023/10/19 02:54:39;;;;;;;19.30;12.95;;;8.50;99.90;;;;;;4959618;28;89475;-32
2023/10/19 02:57:09;;;;;;;16.85;11.40;;;8.50;99.90;;;;;;4958617;28;89216;-29
2023/10/19 02:59:35;;;;;;;17.90;11.43;;;8.60;99.90;;;;;;4957331;28;90216;-32
2023/10/19 03:04:36;;;;;;;22.98;12.65;;;8.50;99.90;;;;;;4958927;28;89345;-31
2023/10/19 03:07:07;;;;;;;15.43;11.18;;;8.50;99.90;;;;;;4940928;28;89562;-31
2023/10/19 03:09:36;;;;;;;15.77;10.15;;;8.50;99.90;;;;;;4947574;28;90082;-32
2023/10/19 03:12:03;;;;;;;19.92;10.85;;;8.60;99.90;;;;;;4957816;28;90083;-30
2023/10/19 03:14:29;;;;;;;17.77;12.33;;;8.50;99.90;;;;;;4958388;28;90822;-31
2023/10/19 03:16:56;;;;;;;15.02;11.00;;;8.50;99.90;;;;;;4958160;28;89056;-31
2023/10/19 03:19:22;;;;;;;13.85;10.52;;;8.50;99.90;;;;;;4958763;28;90614;-31
2023/10/19 03:21:50;;;;;;;14.30;9.45;;;8.50;99.90;;;;;;4957274;28;90012;-34
2023/10/19 03:24:35;;;;;;;14.02;9.65;;;8.40;99.90;;;;;;4942188;28;90295;-29
2023/10/19 03:27:17;;;;;;;16.52;11.57;;;8.40;99.90;;;;;;4958263;28;88789;-31
2023/10/19 03:29:53;;;;;;;16.88;11.35;;;8.50;99.90;;;;;;4958670;28;89316;-32
2023/10/19 03:32:22;;;;;;;16.52;11.18;;;8.50;99.90;;;;;;4958496;28;89943;-31
2023/10/19 03:34:48;;;;;;;14.43;9.25;;;8.50;99.90;;;;;;4957750;28;89492;-33
2023/10/19 03:37:14;;;;;;;16.35;10.32;;;8.60;99.90;;;;;;4958499;28;89485;-29
2023/10/19 03:39:41;;;;;;;13.25;9.07;;;8.50;99.90;;;;;;4957751;28;90310;-31
2023/10/19 03:42:06;;;;;;;12.57;9.93;;;8.60;99.90;;;;;;4959074;28;89521;-33
2023/10/19 03:47:20;;;;;;;12.13;9.15;;;8.60;99.90;;;;;;4957880;28;87833;-30
2023/10/19 03:49:47;;;;;;;12.38;9.27;;;8.50;99.90;;;;;;4946520;28;90770;-32
2023/10/19 03:54:40;;;;;;;14.05;10.05;;;8.60;99.90;;;;;;4958320;28;90252;-31
2023/10/19 03:57:16;;;;;;;12.45;9.52;;;8.60;99.90;;;;;;4958788;28;88634;-33
2023/10/19 03:59:42;;;;;;;12.48;9.10;;;8.60;99.90;;;;;;4957772;28;90464;-31
2023/10/19 04:02:16;;;;;;;15.10;11.73;;;8.60;99.90;;;;;;4958253;28;90746;-31
2023/10/19 04:04:48;;;;;;;15.18;11.45;;;8.60;99.90;;;;;;4957803;28;89899;-29
2023/10/19 04:07:25;;;;;;;10.75;9.63;;;8.60;99.90;;;;;;4958535;28;89052;-31
2023/10/19 04:09:58;;;;;;;15.25;10.43;;;8.70;99.90;;;;;;4957207;28;90404;-31
2023/10/19 04:12:28;;;;;;;15.18;10.65;;;8.60;99.90;;;;;;4958524;28;89626;-31
2023/10/19 04:14:54;;;;;;;12.45;9.75;;;8.60;99.90;;;;;;4958289;28;89992;-33
2023/10/19 04:17:23;;;;;;;10.80;8.05;;;8.60;99.90;;;;;;4958602;28;88851;-30
2023/10/19 04:19:53;;;;;;;13.38;10.05;;;8.60;99.90;;;;;;4957919;28;90173;-31
2023/10/19 04:22:24;;;;;;;14.38;10.27;;;8.70;99.90;;;;;;4958010;28;89321;-31
2023/10/19 04:24:53;;;;;;;13.88;9.32;;;8.60;99.90;;;;;;4956909;28;89432;-31
2023/10/19 04:27:22;;;;;;;11.68;9.80;;;8.60;99.90;;;;;;4958350;28;89746;-30
2023/10/19 04:29:49;;;;;;;14.07;8.63;;;8.70;99.90;;;;;;4957323;28;90375;-30
2023/10/19 04:32:23;;;;;;;13.48;9.18;;;8.70;99.90;;;;;;4958070;28;89730;-34
2023/10/19 04:34:48;;;;;;;11.60;8.23;;;8.70;99.90;;;;;;4958661;28;89200;-32
2023/10/19 04:37:18;;;;;;;12.55;8.90;;;8.70;99.90;;;;;;4953155;28;89386;-30
2023/10/19 04:39:44;;;;;;;13.57;9.13;;;8.70;99.90;;;;;;4958298;28;90193;-29
2023/10/19 04:42:10;;;;;;;10.63;8.50;;;8.70;99.90;;;;;;4958614;28;89820;-29
2023/10/19 04:44:35;;;;;;;11.70;8.48;;;8.70;99.90;;;;;;4957723;28;89873;-30
2023/10/19 04:47:01;;;;;;;10.98;8.80;;;8.70;99.90;;;;;;4958817;28;87628;-29
2023/10/19 04:49:28;;;;;;;13.27;10.18;;;8.80;99.90;;;;;;4958109;28;89346;-32
2023/10/19 04:51:54;;;;;;;12.45;8.93;;;8.80;99.90;;;;;;4956955;28;90733;-32
2023/10/19 04:54:19;;;;;;;10.57;7.93;;;8.80;99.90;;;;;;4958767;28;89750;-30
2023/10/19 04:56:45;;;;;;;13.55;8.35;;;8.80;99.90;;;;;;4956442;28;89094;-30
2023/10/19 04:59:10;;;;;;;12.05;8.05;;;8.70;99.90;;;;;;4958744;28;89578;-32
2023/10/19 05:01:37;;;;;;;12.93;8.52;;;8.70;99.90;;;;;;4957097;28;89596;-32
2023/10/19 05:04:03;;;;;;;13.40;9.85;;;8.70;99.90;;;;;;4960443;28;89079;-33
2023/10/19 05:06:28;;;;;;;12.23;8.52;;;8.80;99.90;;;;;;4961744;28;89111;-30
2023/10/19 05:08:54;;;;;;;13.25;9.85;;;8.80;99.90;;;;;;4961034;28;89932;-29
2023/10/19 05:11:20;;;;;;;10.13;7.95;;;8.80;99.90;;;;;;4961755;28;90428;-31
2023/10/19 05:13:45;;;;;;;12.38;8.13;;;8.70;99.90;;;;;;4960676;28;89460;-32
2023/10/19 05:16:11;;;;;;;12.27;8.15;;;8.70;99.90;;;;;;4961680;28;88529;-32
2023/10/19 05:18:37;;;;;;;9.57;7.45;;;8.80;99.90;;;;;;4960975;28;89599;-30
2023/10/19 05:21:02;;;;;;;10.50;8.55;;;8.70;99.90;;;;;;4960693;28;89377;-33
2023/10/19 05:23:28;;;;;;;10.05;8.57;;;8.70;99.90;;;;;;4961542;28;89492;-32
2023/10/19 05:26:02;;;;;;;9.50;7.65;;;8.70;99.90;;;;;;4961662;28;88273;-33
2023/10/19 05:28:28;;;;;;;10.48;8.65;;;8.60;99.90;;;;;;4960971;28;89782;-32
2023/10/19 05:30:54;;;;;;;10.65;7.78;;;8.60;99.90;;;;;;4960670;28;90104;-31
2023/10/19 05:33:20;;;;;;;10.98;8.10;;;8.70;99.90;;;;;;4960835;28;89757;-33
2023/10/19 05:35:47;;;;;;;8.13;7.32;;;8.80;99.90;;;;;;4961567;28;89634;-30
2023/10/19 05:38:13;;;;;;;8.65;6.55;;;8.90;99.90;;;;;;4960086;28;90306;-29
2023/10/19 05:40:38;;;;;;;10.40;7.00;;;8.90;99.90;;;;;;4960518;28;91012;-32
2023/10/19 05:43:05;;;;;;;8.05;6.90;;;8.90;99.90;;;;;;4960739;28;90233;-31
2023/10/19 05:45:32;;;;;;;9.23;6.38;;;9.00;99.90;;;;;;4960078;28;87956;-35
2023/10/19 05:48:29;;;;;;;7.43;5.70;;;9.00;99.90;;;;;;4960134;28;90068;-33
2023/10/19 05:50:56;;;;;;;7.05;5.88;;;9.00;99.90;;;;;;4939019;28;90505;-33
2023/10/19 05:53:22;;;;;;;12.30;7.35;;;9.00;99.90;;;;;;4941202;28;89036;-31
2023/10/19 05:55:49;;;;;;;9.60;5.88;;;9.00;99.90;;;;;;4940900;28;89601;-33
2023/10/19 05:58:15;;;;;;;6.55;5.13;;;8.90;99.90;;;;;;4941463;28;89402;-34
2023/10/19 06:00:42;;;;;;;5.82;4.78;;;8.90;99.90;;;;;;4941967;28;89204;-31
2023/10/19 06:03:07;;;;;;;6.15;5.53;;;8.90;99.90;;;;;;4940210;28;89916;-33
2023/10/19 06:05:33;;;;;;;6.15;4.97;;;9.00;99.90;;;;;;4940745;28;88855;-32
2023/10/19 06:07:59;;;;;;;6.20;4.97;;;9.00;99.90;;;;;;4939909;28;90194;-29
2023/10/19 06:10:27;;;;;;;6.28;4.78;;;9.00;99.90;;;;;;4940618;28;89359;-30
2023/10/19 06:12:53;;;;;;;7.00;5.13;;;9.00;99.90;;;;;;4940751;28;89293;-30
2023/10/19 06:15:21;;;;;;;6.50;4.60;;;9.00;99.90;;;;;;4940211;28;88999;-30
2023/10/19 06:17:47;;;;;;;7.27;5.93;;;9.00;99.90;;;;;;4940431;28;89947;-31
2023/10/19 06:20:19;;;;;;;5.85;4.80;;;9.00;99.90;;;;;;4923456;28;89956;-29
2023/10/19 06:22:50;;;;;;;6.22;4.70;;;9.00;99.90;;;;;;4940721;28;89183;-34
2023/10/19 06:25:21;;;;;;;4.85;4.45;;;9.00;99.90;;;;;;4940283;28;89737;-30
2023/10/19 06:27:47;;;;;;;5.25;4.65;;;8.90;99.90;;;;;;4940260;28;90178;-32
2023/10/19 06:30:18;;;;;;;6.70;5.25;;;8.90;99.90;;;;;;4939840;28;91102;-30
2023/10/19 06:32:47;;;;;;;6.63;5.20;;;8.90;99.90;;;;;;4939813;28;89662;-32
2023/10/19 06:35:13;;;;;;;11.60;4.50;;;8.90;99.90;;;;;;4938439;28;89832;-33
2023/10/19 06:37:40;;;;;;;6.18;4.80;;;8.90;99.90;;;;;;4934509;28;90969;-31
2023/10/19 06:40:06;;;;;;;5.75;5.15;;;8.80;99.90;;;;;;4938667;28;89470;-30
2023/10/19 06:42:32;;;;;;;6.28;5.18;;;8.80;99.90;;;;;;4931970;28;89777;-31
2023/10/19 06:44:57;;;;;;;5.88;5.30;;;8.90;99.90;;;;;;4938397;28;88152;-30
2023/10/19 06:47:23;;;;;;;6.63;5.68;;;8.90;99.90;;;;;;4937970;28;90384;-32
2023/10/19 06:49:50;;;;;;;6.47;4.75;;;8.90;99.90;;;;;;4937558;28;89646;-30
2023/10/19 06:52:15;;;;;;;6.78;5.13;;;8.90;99.90;;;;;;4937208;28;89400;-31
2023/10/19 06:54:41;;;;;;;5.13;4.45;;;9.00;99.90;;;;;;4937384;28;88949;-30
2023/10/19 06:57:08;;;;;;;4.05;3.63;;;9.00;99.90;;;;;;4939129;28;90468;-33
2023/10/19 06:59:35;;;;;;;6.00;4.47;;;8.90;99.90;;;;;;4934610;28;90561;-34
2023/10/19 07:02:01;;;;;;;8.10;4.80;;;9.00;99.90;;;;;;4937858;28;88870;-33
2023/10/19 07:04:28;;;;;;;5.75;4.43;;;9.00;99.90;;;;;;4938163;28;89426;-32
2023/10/19 07:06:54;;;;;;;5.38;4.88;;;9.00;99.90;;;;;;4936914;28;89593;-33
2023/10/19 07:09:19;;;;;;;6.45;4.82;;;9.00;99.90;;;;;;4937600;28;89729;-34
2023/10/19 07:11:45;;;;;;;4.45;3.88;;;9.00;99.90;;;;;;4937775;28;89358;-32
2023/10/19 07:14:12;;;;;;;8.25;5.53;;;9.00;99.90;;;;;;4937324;28;89078;-32
2023/10/19 07:16:40;;;;;;;4.57;3.90;;;8.90;99.90;;;;;;4937012;28;90723;-30
2023/10/19 07:19:06;;;;;;;5.80;4.53;;;8.90;99.90;;;;;;4938075;28;90279;-31
2023/10/19 07:21:35;;;;;;;4.93;4.40;;;9.00;99.90;;;;;;4936729;28;90543;-33
2023/10/19 07:24:05;;;;;;;4.55;4.15;;;9.10;99.90;;;;;;4937761;28;90091;-31
2023/10/19 07:26:33;;;;;;;4.63;4.15;;;9.10;99.90;;;;;;4918207;28;91222;-31
2023/10/19 07:28:59;;;;;;;5.57;4.07;;;9.10;99.90;;;;;;4937050;28;89628;-33
2023/10/19 07:31:27;;;;;;;5.38;4.88;;;9.10;99.90;;;;;;4919635;28;89794;-31
2023/10/19 07:33:55;;;;;;;4.32;3.90;;;9.10;99.90;;;;;;4938149;28;89950;-32
2023/10/19 07:36:21;;;;;;;4.25;3.85;;;9.10;99.90;;;;;;4935549;28;90788;-32
2023/10/19 07:38:47;;;;;;;5.88;4.63;;;9.20;99.90;;;;;;4936058;28;88338;-33
2023/10/19 07:41:13;;;;;;;6.60;5.07;;;9.20;99.90;;;;;;4937345;28;89694;-29
2023/10/19 07:43:39;;;;;;;4.97;4.50;;;9.20;99.90;;;;;;4936066;28;90022;-32
2023/10/19 07:46:08;;;;;;;5.25;4.28;;;9.30;99.90;;;;;;4937064;28;89690;-31
2023/10/19 07:48:33;;;;;;;4.38;3.95;;;9.30;99.90;;;;;;4934453;28;89376;-32
2023/10/19 07:50:59;;;;;;;5.80;4.90;;;9.20;99.90;;;;;;4930841;28;89829;-34
2023/10/19 07:53:25;;;;;;;5.28;4.60;;;9.20;99.90;;;;;;4937311;28;88014;-33
2023/10/19 07:55:51;;;;;;;6.32;4.85;;;9.20;99.90;;;;;;4935445;28;90400;-34
2023/10/19 07:58:16;;;;;;;6.97;6.25;;;9.20;99.90;;;;;;4935629;28;89618;-31
2023/10/19 08:00:42;;;;;;;7.00;5.65;;;9.10;99.90;;;;;;4936379;28;89904;-32
2023/10/19 08:03:08;;;;;;;5.47;4.95;;;9.20;99.90;;;;;;4936567;28;90005;-31
2023/10/19 08:05:35;;;;;;;6.35;5.75;;;9.30;99.90;;;;;;4936809;28;90166;-32
2023/10/19 08:08:03;;;;;;;6.63;5.55;;;9.30;99.90;;;;;;4936193;28;92043;-31
2023/10/19 08:10:29;;;;;;;7.00;5.85;;;9.30;99.90;;;;;;4936527;28;89973;-33
2023/10/19 08:12:55;;;;;;;5.93;4.85;;;9.20;99.90;;;;;;4935727;28;88707;-33
2023/10/19 08:15:21;;;;;;;7.53;6.10;;;9.30;99.90;;;;;;4936407;28;89026;-33
2023/10/19 08:17:50;;;;;;;9.52;7.03;;;9.30;99.90;;;;;;4935823;28;89948;-32
2023/10/19 08:20:17;;;;;;;7.30;5.97;;;9.40;99.90;;;;;;4935371;28;89886;-32
2023/10/19 08:22:46;;;;;;;6.97;6.10;;;9.40;99.90;;;;;;4937494;28;88728;-33
2023/10/19 08:25:14;;;;;;;6.90;5.70;;;9.40;99.90;;;;;;4936673;28;90207;-33
2023/10/19 08:27:49;;;;;;;7.60;6.57;;;9.40;99.90;;;;;;4935639;28;89706;-31
2023/10/19 08:30:19;;;;;;;8.25;6.82;;;9.40;99.90;;;;;;4918856;28;89377;-33
2023/10/19 08:32:47;;;;;;;8.68;6.85;;;9.40;99.90;;;;;;4935898;28;90390;-31
2023/10/19 08:35:20;;;;;;;8.43;6.57;;;9.40;99.90;;;;;;4934869;28;89481;-30
2023/10/19 08:37:47;;;;;;;6.18;5.60;;;9.40;99.90;;;;;;4937710;28;89187;-33
2023/10/19 08:40:17;;;;;;;8.30;5.90;;;9.50;99.90;;;;;;4939241;28;90350;-33
2023/10/19 08:42:45;;;;;;;9.48;7.10;;;9.50;99.90;;;;;;4938234;28;89530;-32
2023/10/19 08:45:14;;;;;;;7.97;6.75;;;9.50;99.90;;;;;;4939812;28;90417;-33
2023/10/19 08:48:00;;;;;;;6.70;5.63;;;9.50;99.90;;;;;;4938943;28;90139;-33
2023/10/19 08:50:30;;;;;;;9.73;7.10;;;9.50;99.90;;;;;;4934491;28;89599;-33
2023/10/19 08:52:58;;;;;;;11.02;7.65;;;9.50;99.90;;;;;;4936912;28;88216;-32
2023/10/19 08:55:24;;;;;;;9.43;7.28;;;9.60;99.90;;;;;;4936558;28;90790;-30
2023/10/19 08:57:51;;;;;;;10.05;8.30;;;9.70;99.90;;;;;;4938087;28;90103;-31
2023/10/19 09:00:19;;;;;;;13.20;7.32;;;9.70;99.90;;;;;;4939529;28;90264;-31
2023/10/19 09:02:45;;;;;;;13.27;7.85;;;9.60;99.90;;;;;;4939219;28;88351;-32
2023/10/19 09:05:19;;;;;;;11.32;8.15;;;9.70;99.90;;;;;;4938117;28;91009;-34
2023/10/19 09:07:55;;;;;;;28.98;12.93;;;9.70;99.90;;;;;;4939525;28;90231;-31
2023/10/19 09:10:26;;;;;;;11.57;8.77;;;9.80;99.90;;;;;;4939119;28;90408;-32
2023/10/19 09:13:12;;;;;;;15.30;8.85;;;9.80;99.90;;;;;;4939170;28;88711;-32
2023/10/19 09:15:39;;;;;;;11.55;8.48;;;9.80;99.90;;;;;;4938319;28;89923;-33
2023/10/19 09:18:22;;;;;;;11.70;8.23;;;9.80;99.90;;;;;;4938253;28;88920;-35
2023/10/19 09:20:52;;;;;;;8.00;7.05;;;9.80;99.90;;;;;;4939539;28;89351;-30
2023/10/19 09:23:22;;;;;;;9.52;7.95;;;9.90;99.90;;;;;;4938909;28;89300;-31
2023/10/19 09:25:50;;;;;;;10.48;9.05;;;9.80;99.90;;;;;;4939409;28;90046;-31
2023/10/19 09:28:15;;;;;;;10.20;7.93;;;9.80;99.90;;;;;;4938676;28;89832;-32
2023/10/19 09:30:43;;;;;;;10.05;6.65;;;9.80;99.90;;;;;;4920907;28;89720;-34
2023/10/19 09:33:09;;;;;;;10.80;7.47;;;9.90;99.90;;;;;;4940689;28;88803;-31
2023/10/19 09:35:37;;;;;;;10.10;9.10;;;9.90;99.90;;;;;;4940770;28;91485;-32
2023/10/19 09:38:05;;;;;;;11.10;6.90;;;10.00;99.90;;;;;;4940617;28;90125;-32
2023/10/19 09:40:30;;;;;;;7.90;6.95;;;10.00;99.90;;;;;;4940576;28;89798;-34
2023/10/19 09:42:58;;;;;;;9.90;7.95;;;10.10;99.90;;;;;;4939561;28;89058;-31
2023/10/19 09:45:27;;;;;;;10.77;8.23;;;10.10;99.90;;;;;;4940425;28;90077;-32
2023/10/19 09:47:54;;;;;;;13.60;9.63;;;10.10;99.90;;;;;;4937802;28;89793;-30
2023/10/19 09:50:20;;;;;;;12.27;10.00;;;10.10;99.90;;;;;;4904880;28;91090;-30
2023/10/19 09:52:46;;;;;;;9.70;7.63;;;10.10;99.90;;;;;;4900934;28;88775;-33
2023/10/19 09:55:25;;;;;;;12.55;8.45;;;10.10;99.90;;;;;;4900258;28;90984;-33
2023/10/19 09:57:52;;;;;;;11.35;7.15;;;10.10;99.90;;;;;;4900566;28;88820;-31
2023/10/19 10:00:23;;;;;;;11.10;8.63;;;10.20;99.90;;;;;;4902037;28;89053;-32
2023/10/19 10:02:49;;;;;;;13.50;10.55;;;10.20;99.90;;;;;;4901719;28;89579;-30
2023/10/19 10:05:43;;;;;;;10.73;7.93;;;10.20;99.90;;;;;;4901819;28;90397;-32
2023/10/19 10:08:17;;;;;;;9.27;7.95;;;10.20;99.90;;;;;;4900618;28;89961;-33
2023/10/19 10:10:47;;;;;;;14.80;10.25;;;10.20;99.90;;;;;;4902642;28;89769;-34
2023/10/19 10:13:30;;;;;;;9.10;7.90;;;10.20;99.90;;;;;;4901309;28;89759;-33
2023/10/19 10:15:57;;;;;;;13.35;9.52;;;10.20;99.90;;;;;;4890669;28;90310;-32
2023/10/19 10:18:30;;;;;;;15.83;10.50;;;10.30;99.90;;;;;;4900925;28;88724;-31
2023/10/19 10:21:17;;;;;;;15.15;8.98;;;10.30;99.90;;;;;;4900779;28;89757;-33
2023/10/19 10:23:54;;;;;;;13.95;9.43;;;10.40;99.90;;;;;;4901610;28;89860;-33
2023/10/19 10:26:24;;;;;;;10.07;6.85;;;10.50;99.90;;;;;;4901467;28;90360;-34
2023/10/19 10:29:14;;;;;;;13.35;9.98;;;10.50;99.90;;;;;;4901212;28;89252;-33
2023/10/19 10:31:47;;;;;;;18.88;10.48;;;10.50;99.90;;;;;;4899887;28;89184;-34
2023/10/19 10:34:40;;;;;;;11.40;8.32;;;10.50;99.90;;;;;;4901749;28;87666;-33
2023/10/19 10:37:08;;;;;;;12.77;8.48;;;10.50;99.90;;;;;;4901732;28;90419;-31
2023/10/19 10:39:36;;;;;;;14.40;9.45;;;10.50;99.90;;;;;;4900235;28;90369;-34
2023/10/19 10:42:09;;;;;;;13.45;9.82;;;10.50;99.90;;;;;;4902229;28;90636;-33
2023/10/19 10:44:39;;;;;;;14.52;9.25;;;10.50;99.90;;;;;;4901427;28;89961;-32
2023/10/19 10:47:24;;;;;;;18.70;11.82;;;10.50;99.90;;;;;;4901814;28;89956;-34
2023/10/19 10:49:51;;;;;;;12.45;9.40;;;10.60;99.90;;;;;;4927153;28;90891;-33
2023/10/19 10:52:35;;;;;;;14.10;9.68;;;10.60;99.90;;;;;;4940118;28;91558;-31
2023/10/19 10:55:12;;;;;;;10.27;8.38;;;10.60;99.90;;;;;;4939699;28;88332;-32
2023/10/19 10:57:42;;;;;;;14.18;11.00;;;10.60;99.90;;;;;;4940161;28;90167;-33
2023/10/19 11:00:15;;;;;;;11.38;8.68;;;10.50;99.90;;;;;;4938444;28;89803;-31
2023/10/19 11:02:43;;;;;;;13.15;10.07;;;10.60;99.90;;;;;;4938448;28;89787;-30
2023/10/19 11:05:13;;;;;;;12.97;10.53;;;10.60;99.90;;;;;;4939078;28;88013;-31
2023/10/19 11:08:03;;;;;;;13.13;8.25;;;10.70;99.90;;;;;;4938586;28;89999;-33
2023/10/19 11:10:30;;;;;;;10.95;8.63;;;10.80;99.90;;;;;;4939936;28;89788;-33
2023/10/19 11:13:06;;;;;;;13.18;10.07;;;10.70;99.90;;;;;;4937915;28;88252;-32
2023/10/19 11:15:36;;;;;;;11.10;9.10;;;10.80;99.90;;;;;;4939809;28;89057;-33
2023/10/19 11:18:03;;;;;;;12.48;8.98;;;10.80;99.90;;;;;;4940123;28;90065;-33
2023/10/19 11:20:29;;;;;;;12.43;8.38;;;10.80;99.90;;;;;;4939979;28;89788;-34
2023/10/19 11:22:57;;;;;;;15.07;8.27;;;10.80;99.90;;;;;;4939725;28;89156;-33
2023/10/19 11:25:30;;;;;;;16.77;10.90;;;10.90;99.90;;;;;;4939284;28;89309;-33
2023/10/19 11:27:57;;;;;;;12.70;9.70;;;10.80;99.90;;;;;;4938387;28;90155;-34
2023/10/19 11:30:31;;;;;;;11.32;10.00;;;10.80;99.90;;;;;;4938450;28;90137;-33
2023/10/19 11:32:59;;;;;;;14.25;11.27;;;10.80;99.90;;;;;;4936379;28;91979;-33
2023/10/19 11:35:25;;;;;;;12.03;10.77;;;10.90;99.90;;;;;;4935681;28;89565;-33
2023/10/19 11:37:58;;;;;;;12.75;9.75;;;11.00;99.90;;;;;;4938274;28;90967;-34
2023/10/19 11:40:25;;;;;;;12.18;9.23;;;11.00;99.90;;;;;;4939113;28;90383;-32
2023/10/19 11:43:00;;;;;;;12.85;8.75;;;11.00;99.90;;;;;;4939215;28;89423;-32
2023/10/19 11:45:25;;;;;;;13.25;8.50;;;11.00;99.90;;;;;;4939614;28;89243;-33
2023/10/19 11:47:52;;;;;;;11.50;10.15;;;11.10;99.90;;;;;;4939286;28;88951;-32
2023/10/19 11:50:19;;;;;;;19.77;9.57;;;11.20;99.90;;;;;;4938883;28;89767;-35
2023/10/19 11:52:45;;;;;;;10.70;8.98;;;11.20;99.90;;;;;;4939530;28;89257;-30
2023/10/19 11:55:15;;;;;;;12.32;9.57;;;11.20;99.90;;;;;;4936806;28;89222;-33
2023/10/19 11:57:43;;;;;;;13.18;8.80;;;11.30;99.90;;;;;;4939276;28;90185;-34
2023/10/19 12:00:21;;;;;;;14.23;10.20;;;11.30;99.90;;;;;;4939147;28;89638;-32
2023/10/19 12:02:47;;;;;;;;;;;11.20;99.90;;;;;;4939490;28;88828;-32
2023/10/19 12:05:13;;;;;;;13.18;10.00;;;11.30;99.90;;;;;;4940950;28;89035;-31
2023/10/19 12:07:39;;;;;;;14.80;10.27;;;11.30;99.90;;;;;;4937575;28;89360;-31
2023/10/19 12:10:09;;;;;;;14.43;10.95;;;11.20;99.90;;;;;;4939057;28;90477;-34
2023/10/19 12:12:38;;;;;;;14.35;9.70;;;11.30;99.90;;;;;;4940379;28;89901;-31
2023/10/19 12:15:08;;;;;;;11.85;10.05;;;11.30;99.90;;;;;;4943036;28;88317;-33
2023/10/19 12:17:34;;;;;;;13.68;10.30;;;11.40;99.90;;;;;;4941866;28;89979;-34
2023/10/19 12:20:00;;;;;;;10.57;8.48;;;11.40;99.90;;;;;;4940363;28;90781;-33
2023/10/19 12:22:32;;;;;;;11.00;9.60;;;11.40;99.90;;;;;;4943038;28;90234;-33
2023/10/19 12:24:59;;;;;;;10.55;8.35;;;11.40;99.90;;;;;;4941590;28;90165;-31
2023/10/19 12:27:25;;;;;;;9.77;8.77;;;11.40;99.90;;;;;;4942531;28;89798;-33
2023/10/19 12:29:52;;;;;;;11.63;9.57;;;11.40;99.90;;;;;;4941935;28;88644;-33
2023/10/19 12:32:18;;;;;;;9.73;8.50;;;11.50;99.90;;;;;;4942533;28;89281;-33
2023/10/19 12:34:44;;;;;;;12.57;9.20;;;11.50;99.90;;;;;;4941575;28;89098;-31
2023/10/19 12:37:12;;;;;;;12.45;9.90;;;11.50;99.90;;;;;;4942642;28;90235;-32
2023/10/19 12:39:59;;;;;;;11.35;8.23;;;11.50;99.90;;;;;;4941635;28;89377;-30
2023/10/19 12:42:24;;;;;;;12.30;9.70;;;11.50;99.90;;;;;;4942162;28;89851;-30
2023/10/19 12:44:51;;;;;;;13.38;10.55;;;11.50;99.90;;;;;;4941636;28;89429;-33
2023/10/19 12:47:17;;;;;;;10.13;9.13;;;11.60;99.90;;;;;;4923304;28;89776;-34
2023/10/19 12:49:45;;;;;;;13.43;8.07;;;11.50;99.90;;;;;;4941367;28;90036;-33
2023/10/19 12:52:10;;;;;;;13.57;8.77;;;11.50;99.90;;;;;;4942356;28;89201;-34
2023/10/19 12:54:37;;;;;;;9.43;8.00;;;11.50;99.90;;;;;;4941215;28;88981;-31
2023/10/19 12:57:06;;;;;;;11.63;8.60;;;11.50;99.90;;;;;;4941733;28;90451;-33
2023/10/19 12:59:32;;;;;;;12.45;8.40;;;11.50;99.90;;;;;;4940884;28;89682;-32
2023/10/19 13:01:58;;;;;;;9.10;7.18;;;11.50;99.90;;;;;;4943043;28;89000;-33
2023/10/19 13:04:25;;;;;;;11.68;10.00;;;11.60;99.90;;;;;;4942157;28;89026;-32
2023/10/19 13:06:51;;;;;;;11.85;9.02;;;11.60;99.90;;;;;;4940137;28;90763;-34
2023/10/19 13:09:21;;;;;;;15.95;8.25;;;11.60;99.90;;;;;;4941290;28;90820;-32
2023/10/19 13:11:51;;;;;;;11.15;7.95;;;11.60;99.90;;;;;;4936195;28;90254;-33
2023/10/19 13:14:18;;;;;;;11.02;8.40;;;11.60;99.90;;;;;;4941991;28;87795;-34